sensor_id;sensor_type;location;lat;lon;timestamp;pressure;altitude;pressure_sealevel;temperature;humidity
72038;BME280;59900;50.788;12.904;2023-04-22T00:00:40;97234.94;;;11.90;57.35
72038;BME280;59900;50.788;12.904;2023-04-22T00:03:06;97232.31;;;11.84;57.31
72038;BME280;59900;50.788;12.904;2023-04-22T00:05:32;97237.41;;;11.78;57.34
72038;BME280;59900;50.788;12.904;2023-04-22T00:07:57;97223.66;;;11.76;57.43
72038;BME280;59900;50.788;12.904;2023-04-22T00:10:26;97240.06;;;11.72;57.52
72038;BME280;59900;50.788;12.904;2023-04-22T00:12:51;97239.88;;;11.67;57.55
72038;BME280;59900;50.788;12.904;2023-04-22T00:15:17;97235.03;;;11.64;57.71
72038;BME280;59900;50.788;12.904;2023-04-22T00:17:45;97232.00;;;11.60;57.42
72038;BME280;59900;50.788;12.904;2023-04-22T00:20:10;97228.13;;;11.63;57.99
72038;BME280;59900;50.788;12.904;2023-04-22T00:22:36;97214.78;;;11.64;57.49
72038;BME280;59900;50.788;12.904;2023-04-22T00:25:01;97213.38;;;11.62;57.77
72038;BME280;59900;50.788;12.904;2023-04-22T00:27:26;97218.22;;;11.65;57.82
72038;BME280;59900;50.788;12.904;2023-04-22T00:29:51;97217.03;;;11.61;58.37
72038;BME280;59900;50.788;12.904;2023-04-22T00:32:17;97225.34;;;11.58;57.70
72038;BME280;59900;50.788;12.904;2023-04-22T00:34:42;97226.16;;;11.58;58.03
72038;BME280;59900;50.788;12.904;2023-04-22T00:37:08;97217.44;;;11.58;58.10
72038;BME280;59900;50.788;12.904;2023-04-22T00:39:33;97218.28;;;11.52;58.16
72038;BME280;59900;50.788;12.904;2023-04-22T00:41:59;97215.06;;;11.50;58.16
72038;BME280;59900;50.788;12.904;2023-04-22T00:44:26;97208.97;;;11.49;58.61
72038;BME280;59900;50.788;12.904;2023-04-22T00:46:51;97208.56;;;11.52;58.28
72038;BME280;59900;50.788;12.904;2023-04-22T00:49:18;97205.94;;;11.52;58.70
72038;BME280;59900;50.788;12.904;2023-04-22T00:51:43;97211.44;;;11.44;58.85
72038;BME280;59900;50.788;12.904;2023-04-22T00:54:09;97203.13;;;11.47;58.65
72038;BME280;59900;50.788;12.904;2023-04-22T00:56:34;97202.72;;;11.44;58.58
72038;BME280;59900;50.788;12.904;2023-04-22T00:59:01;97204.34;;;11.45;58.71
72038;BME280;59900;50.788;12.904;2023-04-22T01:01:26;97203.75;;;11.43;58.98
72038;BME280;59900;50.788;12.904;2023-04-22T01:03:52;97201.91;;;11.43;58.84
72038;BME280;59900;50.788;12.904;2023-04-22T01:06:18;97192.78;;;11.46;59.02
72038;BME280;59900;50.788;12.904;2023-04-22T01:08:44;97192.63;;;11.41;59.05
72038;BME280;59900;50.788;12.904;2023-04-22T01:11:10;97196.09;;;11.35;59.13
72038;BME280;59900;50.788;12.904;2023-04-22T01:13:35;97192.06;;;11.32;59.54
72038;BME280;59900;50.788;12.904;2023-04-22T01:16:03;97197.16;;;11.20;59.79
72038;BME280;59900;50.788;12.904;2023-04-22T01:18:30;97186.84;;;11.19;60.11
72038;BME280;59900;50.788;12.904;2023-04-22T01:20:56;97184.44;;;11.17;59.98
72038;BME280;59900;50.788;12.904;2023-04-22T01:23:21;97191.28;;;11.18;59.93
72038;BME280;59900;50.788;12.904;2023-04-22T01:25:47;97186.03;;;11.18;60.01
72038;BME280;59900;50.788;12.904;2023-04-22T01:28:14;97181.19;;;11.15;60.15
72038;BME280;59900;50.788;12.904;2023-04-22T01:30:41;97176.94;;;11.14;60.20
72038;BME280;59900;50.788;12.904;2023-04-22T01:33:10;97188.06;;;11.16;60.08
72038;BME280;59900;50.788;12.904;2023-04-22T01:35:36;97183.81;;;11.15;60.31
72038;BME280;59900;50.788;12.904;2023-04-22T01:38:03;97187.66;;;11.13;59.75
72038;BME280;59900;50.788;12.904;2023-04-22T01:40:30;97182.63;;;11.11;59.99
72038;BME280;59900;50.788;12.904;2023-04-22T01:42:56;97182.81;;;11.10;60.05
72038;BME280;59900;50.788;12.904;2023-04-22T01:45:22;97187.09;;;11.04;60.71
72038;BME280;59900;50.788;12.904;2023-04-22T01:47:48;97177.63;;;10.97;60.93
72038;BME280;59900;50.788;12.904;2023-04-22T01:50:13;97176.00;;;10.96;60.87
72038;BME280;59900;50.788;12.904;2023-04-22T01:52:38;97179.66;;;10.88;60.83
72038;BME280;59900;50.788;12.904;2023-04-22T01:55:04;97179.91;;;10.80;61.06
72038;BME280;59900;50.788;12.904;2023-04-22T01:57:29;97174.44;;;10.75;61.35
72038;BME280;59900;50.788;12.904;2023-04-22T01:59:55;97172.03;;;10.67;61.97
72038;BME280;59900;50.788;12.904;2023-04-22T02:02:20;97174.66;;;10.67;61.77
72038;BME280;59900;50.788;12.904;2023-04-22T02:04:45;97174.25;;;10.70;61.57
72038;BME280;59900;50.788;12.904;2023-04-22T02:07:10;97169.38;;;10.74;61.79
72038;BME280;59900;50.788;12.904;2023-04-22T02:09:36;97169.16;;;10.75;61.70
72038;BME280;59900;50.788;12.904;2023-04-22T02:12:01;97174.84;;;10.72;61.62
72038;BME280;59900;50.788;12.904;2023-04-22T02:14:26;97172.81;;;10.74;61.65
72038;BME280;59900;50.788;12.904;2023-04-22T02:16:51;97171.44;;;10.65;61.75
72038;BME280;59900;50.788;12.904;2023-04-22T02:19:17;97171.44;;;10.65;61.65
72038;BME280;59900;50.788;12.904;2023-04-22T02:21:43;97177.69;;;10.64;61.81
72038;BME280;59900;50.788;12.904;2023-04-22T02:24:08;97178.09;;;10.61;61.94
72038;BME280;59900;50.788;12.904;2023-04-22T02:26:33;97171.22;;;10.66;61.59
72038;BME280;59900;50.788;12.904;2023-04-22T02:28:59;97171.63;;;10.70;61.88
72038;BME280;59900;50.788;12.904;2023-04-22T02:31:24;97166.94;;;10.72;61.68
72038;BME280;59900;50.788;12.904;2023-04-22T02:33:49;97170.81;;;10.69;61.43
72038;BME280;59900;50.788;12.904;2023-04-22T02:36:14;97168.75;;;10.72;61.62
72038;BME280;59900;50.788;12.904;2023-04-22T02:38:40;97165.94;;;10.73;61.61
72038;BME280;59900;50.788;12.904;2023-04-22T02:41:05;97162.69;;;10.78;61.27
72038;BME280;59900;50.788;12.904;2023-04-22T02:43:30;97163.50;;;10.85;60.85
72038;BME280;59900;50.788;12.904;2023-04-22T02:45:55;97155.38;;;10.86;61.30
72038;BME280;59900;50.788;12.904;2023-04-22T02:48:21;97156.41;;;10.85;61.27
72038;BME280;59900;50.788;12.904;2023-04-22T02:50:46;97149.34;;;10.86;61.29
72038;BME280;59900;50.788;12.904;2023-04-22T02:53:11;97145.50;;;10.88;61.39
72038;BME280;59900;50.788;12.904;2023-04-22T02:55:38;97158.41;;;10.90;60.68
72038;BME280;59900;50.788;12.904;2023-04-22T02:58:03;97159.03;;;10.85;61.29
72038;BME280;59900;50.788;12.904;2023-04-22T03:00:29;97151.97;;;10.86;60.90
72038;BME280;59900;50.788;12.904;2023-04-22T03:02:54;97146.09;;;10.84;61.17
72038;BME280;59900;50.788;12.904;2023-04-22T03:05:19;97144.09;;;10.79;61.31
72038;BME280;59900;50.788;12.904;2023-04-22T03:07:44;97147.72;;;10.78;61.26
72038;BME280;59900;50.788;12.904;2023-04-22T03:10:11;97138.66;;;10.74;61.64
72038;BME280;59900;50.788;12.904;2023-04-22T03:12:37;97135.63;;;10.71;61.33
72038;BME280;59900;50.788;12.904;2023-04-22T03:15:03;97131.97;;;10.78;60.86
72038;BME280;59900;50.788;12.904;2023-04-22T03:17:28;97128.50;;;10.84;61.08
72038;BME280;59900;50.788;12.904;2023-04-22T03:19:53;97135.16;;;10.87;60.20
72038;BME280;59900;50.788;12.904;2023-04-22T03:22:18;97134.75;;;10.96;60.58
72038;BME280;59900;50.788;12.904;2023-04-22T03:24:44;97133.69;;;11.04;60.05
72038;BME280;59900;50.788;12.904;2023-04-22T03:27:09;97132.44;;;11.13;59.44
72038;BME280;59900;50.788;12.904;2023-04-22T03:29:35;97127.75;;;11.21;59.17
72038;BME280;59900;50.788;12.904;2023-04-22T03:32:00;97142.69;;;11.27;59.35
72038;BME280;59900;50.788;12.904;2023-04-22T03:34:25;97138.25;;;11.28;59.33
72038;BME280;59900;50.788;12.904;2023-04-22T03:36:50;97136.66;;;11.27;59.18
72038;BME280;59900;50.788;12.904;2023-04-22T03:39:16;97136.84;;;11.25;59.19
72038;BME280;59900;50.788;12.904;2023-04-22T03:41:41;97137.84;;;11.24;59.09
72038;BME280;59900;50.788;12.904;2023-04-22T03:44:06;97134.78;;;11.27;59.23
72038;BME280;59900;50.788;12.904;2023-04-22T03:46:31;97137.22;;;11.29;58.93
72038;BME280;59900;50.788;12.904;2023-04-22T03:48:57;97136.59;;;11.34;59.29
72038;BME280;59900;50.788;12.904;2023-04-22T03:51:22;97133.38;;;11.32;59.22
72038;BME280;59900;50.788;12.904;2023-04-22T03:53:47;97137.00;;;11.31;58.71
72038;BME280;59900;50.788;12.904;2023-04-22T03:56:12;97141.50;;;11.30;59.21
72038;BME280;59900;50.788;12.904;2023-04-22T03:58:38;97142.28;;;11.31;59.14
72038;BME280;59900;50.788;12.904;2023-04-22T04:01:03;97137.63;;;11.33;58.74
72038;BME280;59900;50.788;12.904;2023-04-22T04:03:28;97139.84;;;11.36;58.67
72038;BME280;59900;50.788;12.904;2023-04-22T04:05:53;97134.16;;;11.39;58.48
72038;BME280;59900;50.788;12.904;2023-04-22T04:08:19;97144.03;;;11.43;58.70
72038;BME280;59900;50.788;12.904;2023-04-22T04:10:44;97130.69;;;11.45;58.39
72038;BME280;59900;50.788;12.904;2023-04-22T04:13:10;97136.53;;;11.47;58.49
72038;BME280;59900;50.788;12.904;2023-04-22T04:15:35;97140.19;;;11.46;58.67
72038;BME280;59900;50.788;12.904;2023-04-22T04:18:01;97142.00;;;11.45;58.60
72038;BME280;59900;50.788;12.904;2023-04-22T04:20:30;97145.81;;;11.49;58.50
72038;BME280;59900;50.788;12.904;2023-04-22T04:22:58;97144.00;;;11.50;58.31
72038;BME280;59900;50.788;12.904;2023-04-22T04:25:23;97142.19;;;11.50;58.33
72038;BME280;59900;50.788;12.904;2023-04-22T04:27:49;97141.16;;;11.51;57.94
72038;BME280;59900;50.788;12.904;2023-04-22T04:30:16;97145.41;;;11.52;58.02
72038;BME280;59900;50.788;12.904;2023-04-22T04:32:41;97141.78;;;11.53;57.42
72038;BME280;59900;50.788;12.904;2023-04-22T04:35:09;97140.69;;;11.61;57.81
72038;BME280;59900;50.788;12.904;2023-04-22T04:37:37;97138.88;;;11.61;57.76
72038;BME280;59900;50.788;12.904;2023-04-22T04:40:05;97139.47;;;11.63;57.50
72038;BME280;59900;50.788;12.904;2023-04-22T04:42:31;97143.31;;;11.67;56.97
72038;BME280;59900;50.788;12.904;2023-04-22T04:44:57;97139.63;;;11.75;57.21
72038;BME280;59900;50.788;12.904;2023-04-22T04:47:23;97143.03;;;11.82;56.92
72038;BME280;59900;50.788;12.904;2023-04-22T04:49:48;97132.66;;;11.87;55.94
72038;BME280;59900;50.788;12.904;2023-04-22T04:52:14;97134.25;;;11.95;56.27
72038;BME280;59900;50.788;12.904;2023-04-22T04:54:39;97135.41;;;11.99;56.11
72038;BME280;59900;50.788;12.904;2023-04-22T04:57:04;97141.06;;;12.02;55.90
72038;BME280;59900;50.788;12.904;2023-04-22T04:59:30;97132.31;;;12.08;56.20
72038;BME280;59900;50.788;12.904;2023-04-22T05:01:55;97133.69;;;12.11;55.81
72038;BME280;59900;50.788;12.904;2023-04-22T05:04:20;97135.47;;;12.17;55.35
72038;BME280;59900;50.788;12.904;2023-04-22T05:06:46;97137.00;;;12.24;55.25
72038;BME280;59900;50.788;12.904;2023-04-22T05:09:11;97133.75;;;12.29;55.35
72038;BME280;59900;50.788;12.904;2023-04-22T05:11:36;97141.38;;;12.37;55.19
72038;BME280;59900;50.788;12.904;2023-04-22T05:14:02;97138.09;;;12.42;55.04
72038;BME280;59900;50.788;12.904;2023-04-22T05:16:27;97136.44;;;12.47;55.15
72038;BME280;59900;50.788;12.904;2023-04-22T05:18:53;97147.94;;;12.53;54.96
72038;BME280;59900;50.788;12.904;2023-04-22T05:21:18;97143.63;;;12.58;55.05
72038;BME280;59900;50.788;12.904;2023-04-22T05:23:44;97146.63;;;12.62;55.37
72038;BME280;59900;50.788;12.904;2023-04-22T05:26:09;97146.53;;;12.68;54.63
72038;BME280;59900;50.788;12.904;2023-04-22T05:28:34;97149.56;;;12.72;53.70
72038;BME280;59900;50.788;12.904;2023-04-22T05:31:00;97151.09;;;12.79;54.16
72038;BME280;59900;50.788;12.904;2023-04-22T05:33:25;97155.72;;;12.84;54.01
72038;BME280;59900;50.788;12.904;2023-04-22T05:35:50;97152.00;;;12.91;53.94
72038;BME280;59900;50.788;12.904;2023-04-22T05:38:16;97149.69;;;12.95;53.63
72038;BME280;59900;50.788;12.904;2023-04-22T05:40:41;97169.94;;;13.01;53.25
72038;BME280;59900;50.788;12.904;2023-04-22T05:43:07;97156.91;;;13.06;53.41
72038;BME280;59900;50.788;12.904;2023-04-22T05:45:33;97160.28;;;13.13;53.74
72038;BME280;59900;50.788;12.904;2023-04-22T05:47:58;97155.97;;;13.19;54.15
72038;BME280;59900;50.788;12.904;2023-04-22T05:50:23;97151.63;;;13.24;53.00
72038;BME280;59900;50.788;12.904;2023-04-22T05:52:49;97152.34;;;13.31;53.21
72038;BME280;59900;50.788;12.904;2023-04-22T05:55:14;97153.53;;;13.35;52.88
72038;BME280;59900;50.788;12.904;2023-04-22T05:57:39;97170.06;;;13.42;52.93
72038;BME280;59900;50.788;12.904;2023-04-22T06:00:05;97165.53;;;13.50;53.10
72038;BME280;59900;50.788;12.904;2023-04-22T06:02:30;97167.28;;;13.56;52.46
72038;BME280;59900;50.788;12.904;2023-04-22T06:04:55;97163.50;;;13.63;52.96
72038;BME280;59900;50.788;12.904;2023-04-22T06:07:21;97164.25;;;13.70;52.51
72038;BME280;59900;50.788;12.904;2023-04-22T06:09:46;97164.94;;;13.77;52.31
72038;BME280;59900;50.788;12.904;2023-04-22T06:12:11;97156.34;;;13.82;52.70
72038;BME280;59900;50.788;12.904;2023-04-22T06:14:36;97163.13;;;13.89;52.30
72038;BME280;59900;50.788;12.904;2023-04-22T06:17:02;97157.53;;;13.97;52.22
72038;BME280;59900;50.788;12.904;2023-04-22T06:19:27;97160.63;;;14.06;52.44
72038;BME280;59900;50.788;12.904;2023-04-22T06:21:52;97163.44;;;14.11;52.16
72038;BME280;59900;50.788;12.904;2023-04-22T06:24:18;97157.44;;;14.16;51.03
72038;BME280;59900;50.788;12.904;2023-04-22T06:26:43;97159.44;;;14.20;50.86
72038;BME280;59900;50.788;12.904;2023-04-22T06:29:08;97156.66;;;14.27;50.42
72038;BME280;59900;50.788;12.904;2023-04-22T06:31:34;97152.34;;;14.32;50.59
72038;BME280;59900;50.788;12.904;2023-04-22T06:33:59;97160.84;;;14.34;49.50
72038;BME280;59900;50.788;12.904;2023-04-22T06:36:25;97154.66;;;14.40;49.88
72038;BME280;59900;50.788;12.904;2023-04-22T06:38:51;97153.72;;;14.46;50.26
72038;BME280;59900;50.788;12.904;2023-04-22T06:41:17;97156.03;;;14.54;50.59
72038;BME280;59900;50.788;12.904;2023-04-22T06:43:42;97151.91;;;14.58;49.21
72038;BME280;59900;50.788;12.904;2023-04-22T06:46:08;97162.59;;;14.64;49.08
72038;BME280;59900;50.788;12.904;2023-04-22T06:48:33;97157.06;;;14.65;48.84
72038;BME280;59900;50.788;12.904;2023-04-22T06:50:58;97161.09;;;14.68;48.86
72038;BME280;59900;50.788;12.904;2023-04-22T06:53:25;97164.06;;;14.71;49.37
72038;BME280;59900;50.788;12.904;2023-04-22T06:55:51;97151.44;;;14.73;49.35
72038;BME280;59900;50.788;12.904;2023-04-22T06:58:17;97160.75;;;14.76;48.21
72038;BME280;59900;50.788;12.904;2023-04-22T07:00:42;97155.81;;;14.79;48.08
72038;BME280;59900;50.788;12.904;2023-04-22T07:03:08;97152.22;;;14.85;48.80
72038;BME280;59900;50.788;12.904;2023-04-22T07:05:33;97152.34;;;14.90;49.08
72038;BME280;59900;50.788;12.904;2023-04-22T07:07:58;97156.91;;;14.95;48.19
72038;BME280;59900;50.788;12.904;2023-04-22T07:10:23;97158.63;;;15.01;48.33
72038;BME280;59900;50.788;12.904;2023-04-22T07:12:49;97151.84;;;15.05;48.93
72038;BME280;59900;50.788;12.904;2023-04-22T07:15:14;97164.97;;;15.11;48.68
72038;BME280;59900;50.788;12.904;2023-04-22T07:17:39;97163.69;;;15.14;47.66
72038;BME280;59900;50.788;12.904;2023-04-22T07:20:05;97147.34;;;15.17;47.68
72038;BME280;59900;50.788;12.904;2023-04-22T07:22:31;97141.56;;;15.20;47.19
72038;BME280;59900;50.788;12.904;2023-04-22T07:24:56;97152.81;;;15.27;47.30
72038;BME280;59900;50.788;12.904;2023-04-22T07:27:21;97143.38;;;15.31;47.40
72038;BME280;59900;50.788;12.904;2023-04-22T07:29:46;97148.06;;;15.41;48.18
72038;BME280;59900;50.788;12.904;2023-04-22T07:32:12;97156.09;;;15.46;47.23
72038;BME280;59900;50.788;12.904;2023-04-22T07:34:37;97148.28;;;15.51;47.18
72038;BME280;59900;50.788;12.904;2023-04-22T07:37:02;97150.81;;;15.57;46.95
72038;BME280;59900;50.788;12.904;2023-04-22T07:39:28;97151.94;;;15.61;47.27
72038;BME280;59900;50.788;12.904;2023-04-22T07:41:54;97153.16;;;15.70;46.51
72038;BME280;59900;50.788;12.904;2023-04-22T07:44:21;97151.09;;;15.73;46.21
72038;BME280;59900;50.788;12.904;2023-04-22T07:46:47;97145.88;;;15.78;46.56
72038;BME280;59900;50.788;12.904;2023-04-22T07:49:13;97149.41;;;15.83;46.57
72038;BME280;59900;50.788;12.904;2023-04-22T07:51:39;97143.97;;;15.90;46.61
72038;BME280;59900;50.788;12.904;2023-04-22T07:54:04;97149.94;;;15.97;46.67
72038;BME280;59900;50.788;12.904;2023-04-22T07:56:30;97135.94;;;16.01;46.54
72038;BME280;59900;50.788;12.904;2023-04-22T07:58:55;97141.09;;;16.08;46.83
72038;BME280;59900;50.788;12.904;2023-04-22T08:01:20;97140.63;;;16.11;45.78
72038;BME280;59900;50.788;12.904;2023-04-22T08:03:45;97140.16;;;16.14;44.95
72038;BME280;59900;50.788;12.904;2023-04-22T08:06:11;97135.88;;;16.13;44.50
72038;BME280;59900;50.788;12.904;2023-04-22T08:08:36;97149.47;;;16.16;43.83
72038;BME280;59900;50.788;12.904;2023-04-22T08:11:01;97147.63;;;16.17;43.55
72038;BME280;59900;50.788;12.904;2023-04-22T08:13:27;97144.50;;;16.20;43.69
72038;BME280;59900;50.788;12.904;2023-04-22T08:15:52;97145.69;;;16.29;44.27
72038;BME280;59900;50.788;12.904;2023-04-22T08:18:17;97144.41;;;16.32;43.51
72038;BME280;59900;50.788;12.904;2023-04-22T08:20:42;97142.31;;;16.34;44.31
72038;BME280;59900;50.788;12.904;2023-04-22T08:23:08;97144.41;;;16.32;43.00
72038;BME280;59900;50.788;12.904;2023-04-22T08:25:33;97148.66;;;16.33;42.85
72038;BME280;59900;50.788;12.904;2023-04-22T08:27:58;97142.16;;;16.40;43.94
72038;BME280;59900;50.788;12.904;2023-04-22T08:30:24;97137.47;;;16.47;44.36
72038;BME280;59900;50.788;12.904;2023-04-22T08:32:49;97138.34;;;16.53;44.41
72038;BME280;59900;50.788;12.904;2023-04-22T08:35:17;97140.69;;;16.66;43.14
72038;BME280;59900;50.788;12.904;2023-04-22T08:37:42;97136.19;;;16.66;43.79
72038;BME280;59900;50.788;12.904;2023-04-22T08:40:07;97141.50;;;16.66;42.97
72038;BME280;59900;50.788;12.904;2023-04-22T08:42:33;97132.47;;;16.67;42.68
72038;BME280;59900;50.788;12.904;2023-04-22T08:44:58;97131.50;;;16.73;42.70
72038;BME280;59900;50.788;12.904;2023-04-22T08:47:24;97141.16;;;16.79;42.56
72038;BME280;59900;50.788;12.904;2023-04-22T08:49:53;97131.13;;;16.82;42.56
72038;BME280;59900;50.788;12.904;2023-04-22T08:52:18;97130.41;;;16.91;42.46
72038;BME280;59900;50.788;12.904;2023-04-22T08:54:45;97137.91;;;16.94;41.96
72038;BME280;59900;50.788;12.904;2023-04-22T08:57:11;97140.31;;;16.96;42.07
72038;BME280;59900;50.788;12.904;2023-04-22T08:59:37;97135.06;;;17.01;42.57
72038;BME280;59900;50.788;12.904;2023-04-22T09:02:04;97124.50;;;17.06;42.53
72038;BME280;59900;50.788;12.904;2023-04-22T09:04:30;97132.06;;;17.14;42.84
72038;BME280;59900;50.788;12.904;2023-04-22T09:06:56;97124.88;;;17.14;42.92
72038;BME280;59900;50.788;12.904;2023-04-22T09:09:23;97128.34;;;17.15;42.18
72038;BME280;59900;50.788;12.904;2023-04-22T09:11:48;97127.34;;;17.21;41.74
72038;BME280;59900;50.788;12.904;2023-04-22T09:14:15;97123.97;;;17.25;42.36
72038;BME280;59900;50.788;12.904;2023-04-22T09:16:46;97122.16;;;17.31;42.77
72038;BME280;59900;50.788;12.904;2023-04-22T09:19:12;97120.59;;;17.35;42.70
72038;BME280;59900;50.788;12.904;2023-04-22T09:21:38;97115.38;;;17.40;42.24
72038;BME280;59900;50.788;12.904;2023-04-22T09:24:06;97121.28;;;17.47;42.40
72038;BME280;59900;50.788;12.904;2023-04-22T09:26:32;97119.81;;;17.56;42.50
72038;BME280;59900;50.788;12.904;2023-04-22T09:28:58;97104.94;;;17.55;41.24
72038;BME280;59900;50.788;12.904;2023-04-22T09:31:26;97106.06;;;17.64;42.42
72038;BME280;59900;50.788;12.904;2023-04-22T09:33:54;97109.66;;;17.75;42.60
72038;BME280;59900;50.788;12.904;2023-04-22T09:36:30;97107.28;;;17.78;41.55
72038;BME280;59900;50.788;12.904;2023-04-22T09:39:00;97105.69;;;17.77;40.70
72038;BME280;59900;50.788;12.904;2023-04-22T09:41:34;97105.19;;;17.80;40.41
72038;BME280;59900;50.788;12.904;2023-04-22T09:44:01;97108.94;;;17.84;41.11
72038;BME280;59900;50.788;12.904;2023-04-22T09:46:28;97115.81;;;17.80;40.15
72038;BME280;59900;50.788;12.904;2023-04-22T09:48:54;97115.53;;;17.82;40.63
72038;BME280;59900;50.788;12.904;2023-04-22T09:51:20;97115.28;;;17.78;40.34
72038;BME280;59900;50.788;12.904;2023-04-22T09:54:13;97113.16;;;17.80;40.65
72038;BME280;59900;50.788;12.904;2023-04-22T09:56:47;97106.78;;;17.81;39.92
72038;BME280;59900;50.788;12.904;2023-04-22T09:59:23;97104.69;;;17.83;39.85
72038;BME280;59900;50.788;12.904;2023-04-22T10:01:55;97113.53;;;17.94;40.20
72038;BME280;59900;50.788;12.904;2023-04-22T10:04:20;97109.63;;;18.02;40.75
72038;BME280;59900;50.788;12.904;2023-04-22T10:06:48;97104.31;;;18.02;39.68
72038;BME280;59900;50.788;12.904;2023-04-22T10:09:14;97105.38;;;18.06;40.93
72038;BME280;59900;50.788;12.904;2023-04-22T10:11:41;97099.63;;;18.14;40.30
72038;BME280;59900;50.788;12.904;2023-04-22T10:14:07;97111.91;;;18.20;39.96
72038;BME280;59900;50.788;12.904;2023-04-22T10:16:34;97101.81;;;18.22;40.37
72038;BME280;59900;50.788;12.904;2023-04-22T10:19:02;97102.94;;;18.31;39.96
72038;BME280;59900;50.788;12.904;2023-04-22T10:21:29;97097.09;;;18.34;38.89
72038;BME280;59900;50.788;12.904;2023-04-22T10:23:57;97096.53;;;18.32;39.03
72038;BME280;59900;50.788;12.904;2023-04-22T10:27:04;97091.22;;;18.32;39.25
72038;BME280;59900;50.788;12.904;2023-04-22T10:29:36;97091.78;;;18.34;39.22
72038;BME280;59900;50.788;12.904;2023-04-22T10:32:05;97101.94;;;18.42;38.95
72038;BME280;59900;50.788;12.904;2023-04-22T10:34:31;97101.41;;;18.40;38.64
72038;BME280;59900;50.788;12.904;2023-04-22T10:37:05;97095.78;;;18.36;37.77
72038;BME280;59900;50.788;12.904;2023-04-22T10:39:30;97098.44;;;18.36;37.91
72038;BME280;59900;50.788;12.904;2023-04-22T10:44:59;97094.25;;;18.45;38.54
72038;BME280;59900;50.788;12.904;2023-04-22T10:47:35;97089.59;;;18.58;38.84
72038;BME280;59900;50.788;12.904;2023-04-22T10:50:23;97099.41;;;18.57;37.11
72038;BME280;59900;50.788;12.904;2023-04-22T10:52:55;97090.94;;;18.60;37.69
72038;BME280;59900;50.788;12.904;2023-04-22T10:55:21;97101.78;;;18.54;37.52
72038;BME280;59900;50.788;12.904;2023-04-22T10:57:48;97101.59;;;18.65;37.55
72038;BME280;59900;50.788;12.904;2023-04-22T11:00:31;97094.72;;;18.74;38.01
72038;BME280;59900;50.788;12.904;2023-04-22T11:03:10;97092.59;;;18.76;36.55
72038;BME280;59900;50.788;12.904;2023-04-22T11:05:37;97084.09;;;18.79;37.47
72038;BME280;59900;50.788;12.904;2023-04-22T11:08:08;97088.16;;;18.87;36.66
72038;BME280;59900;50.788;12.904;2023-04-22T11:13:09;97073.84;;;19.08;37.33
72038;BME280;59900;50.788;12.904;2023-04-22T11:15:37;97070.97;;;19.20;36.38
72038;BME280;59900;50.788;12.904;2023-04-22T11:18:07;97066.47;;;19.30;35.94
72038;BME280;59900;50.788;12.904;2023-04-22T11:20:33;97057.41;;;19.36;36.64
72038;BME280;59900;50.788;12.904;2023-04-22T11:22:58;97052.66;;;19.43;36.65
72038;BME280;59900;50.788;12.904;2023-04-22T11:25:24;97051.88;;;19.53;35.46
72038;BME280;59900;50.788;12.904;2023-04-22T11:27:51;97051.88;;;19.58;35.37
72038;BME280;59900;50.788;12.904;2023-04-22T11:30:21;97067.38;;;19.66;35.66
72038;BME280;59900;50.788;12.904;2023-04-22T11:32:52;97064.69;;;19.61;34.58
72038;BME280;59900;50.788;12.904;2023-04-22T11:35:19;97058.81;;;19.64;34.61
72038;BME280;59900;50.788;12.904;2023-04-22T11:37:47;97055.38;;;19.64;36.06
72038;BME280;59900;50.788;12.904;2023-04-22T11:40:16;97050.03;;;19.69;35.72
72038;BME280;59900;50.788;12.904;2023-04-22T11:42:43;97048.69;;;19.76;36.05
72038;BME280;59900;50.788;12.904;2023-04-22T11:45:09;97051.09;;;19.88;35.71
72038;BME280;59900;50.788;12.904;2023-04-22T11:47:35;97047.63;;;20.02;35.75
72038;BME280;59900;50.788;12.904;2023-04-22T11:50:03;97050.84;;;20.09;35.72
72038;BME280;59900;50.788;12.904;2023-04-22T11:52:47;97038.28;;;20.20;35.35
72038;BME280;59900;50.788;12.904;2023-04-22T11:55:15;97048.72;;;20.27;34.80
72038;BME280;59900;50.788;12.904;2023-04-22T11:57:41;97041.22;;;20.24;34.55
72038;BME280;59900;50.788;12.904;2023-04-22T12:00:10;97048.19;;;20.30;34.39
72038;BME280;59900;50.788;12.904;2023-04-22T12:02:36;97044.94;;;20.23;34.64
72038;BME280;59900;50.788;12.904;2023-04-22T12:05:02;97042.28;;;20.18;34.68
72038;BME280;59900;50.788;12.904;2023-04-22T12:07:28;97041.78;;;20.16;34.89
72038;BME280;59900;50.788;12.904;2023-04-22T12:09:53;97044.97;;;20.18;34.87
72038;BME280;59900;50.788;12.904;2023-04-22T12:12:25;97037.78;;;20.33;35.15
72038;BME280;59900;50.788;12.904;2023-04-22T12:14:50;97032.94;;;20.50;34.80
72038;BME280;59900;50.788;12.904;2023-04-22T12:17:21;97032.09;;;20.55;34.36
72038;BME280;59900;50.788;12.904;2023-04-22T12:19:47;97024.34;;;20.68;34.37
72038;BME280;59900;50.788;12.904;2023-04-22T12:22:25;97033.06;;;20.89;33.65
72038;BME280;59900;50.788;12.904;2023-04-22T12:24:51;97020.94;;;21.17;33.96
72038;BME280;59900;50.788;12.904;2023-04-22T12:27:16;97026.91;;;21.48;33.75
72038;BME280;59900;50.788;12.904;2023-04-22T12:29:50;97022.78;;;21.65;32.39
72038;BME280;59900;50.788;12.904;2023-04-22T12:32:17;97020.25;;;21.79;32.19
72038;BME280;59900;50.788;12.904;2023-04-22T12:34:42;97013.94;;;22.04;32.66
72038;BME280;59900;50.788;12.904;2023-04-22T12:37:07;97011.69;;;22.16;32.21
72038;BME280;59900;50.788;12.904;2023-04-22T12:39:33;97010.94;;;22.34;32.08
72038;BME280;59900;50.788;12.904;2023-04-22T12:41:58;97013.75;;;22.24;32.23
72038;BME280;59900;50.788;12.904;2023-04-22T12:44:23;97013.13;;;22.32;31.75
72038;BME280;59900;50.788;12.904;2023-04-22T12:46:48;97013.84;;;22.43;31.49
72038;BME280;59900;50.788;12.904;2023-04-22T12:49:14;97013.75;;;22.76;31.48
72038;BME280;59900;50.788;12.904;2023-04-22T12:51:39;97010.88;;;22.92;31.41